ADDS METAR Data INFO
IDs: Format: Raw Decoded Include TAF

Data at: 2059 UTC 19 Jul 2018

KEBS 192035Z AUTO 27014G21KT 10SM SCT032 SCT039 SCT045 27/19 A2971 RMK AO2
KEBS 192015Z AUTO 28013G24KT 10SM FEW029 27/20 A2971 RMK AO2
KEBS 191955Z AUTO 27013G22KT 10SM FEW030 FEW035 FEW043 27/20 A2971 RMK AO2
KEBS 191935Z AUTO 27013G19KT 10SM FEW020 SCT029 BKN039 27/20 A2972 RMK AO2
KEBS 191915Z AUTO 17009G16KT 10SM FEW019 BKN029 BKN055 25/21 A2971 RMK AO2
KEBS 191855Z AUTO 18012KT 10SM SCT018 BKN027 BKN036 25/21 A2972 RMK AO2
KEBS 191835Z AUTO 17011G18KT 10SM SCT017 BKN027 BKN041 25/21 A2973 RMK AO2
KEBS 191815Z AUTO 17014KT 10SM SCT015 SCT095 25/21 A2973 RMK AO2
KEBS 191755Z AUTO 16015G21KT 10SM BKN015 BKN026 24/20 A2973 RMK AO2
KEBS 191735Z AUTO 15014G20KT 10SM BKN014 BKN026 24/20 A2974 RMK AO2
KEBS 191715Z AUTO 15015G21KT 10SM BKN013 23/19 A2975 RMK AO2
KEBS 191655Z AUTO 14015G20KT 10SM BKN013 BKN024 23/19 A2977 RMK AO2
KEBS 191635Z AUTO 15017KT 10SM OVC012 21/18 A2978 RMK AO2
KEBS 191615Z AUTO 15015G21KT 9SM OVC011 20/18 A2979 RMK AO2
KEBS 191555Z AUTO 15014G22KT 8SM OVC011 20/18 A2980 RMK AO2
KEBS 191535Z AUTO 15014G22KT 10SM OVC010 20/18 A2980 RMK AO2
KEBS 191515Z AUTO 14015G25KT 10SM OVC011 20/18 A2980 RMK AO2
KEBS 191455Z AUTO 14016KT 10SM OVC012 20/18 A2980 RMK AO2
KEBS 191435Z AUTO 13013G20KT 10SM OVC011 20/18 A2981 RMK AO2
KEBS 191415Z AUTO 14015KT 10SM OVC011 20/18 A2982 RMK AO2
KEBS 191355Z AUTO 14012G20KT 10SM OVC012 20/18 A2982 RMK AO2
KEBS 191335Z AUTO 14015G22KT 10SM OVC011 20/18 A2982 RMK AO2
KEBS 191315Z AUTO 15016KT 10SM BKN011 OVC019 20/19 A2982 RMK AO2
KEBS 191255Z AUTO 14016G23KT 10SM BKN012 OVC020 20/18 A2983 RMK AO2
KEBS 191235Z AUTO 15017G23KT 10SM BKN012 OVC017 20/18 A2984 RMK AO2
KEBS 191215Z AUTO 15018G24KT 10SM BKN012 OVC016 20/18 A2984 RMK AO2
KEBS 191155Z AUTO 14017G27KT 10SM BKN012 BKN028 OVC046 20/19 A2984 RMK AO2
KEBS 191135Z AUTO 14016G22KT 10SM BKN012 BKN017 OVC028 20/19 A2984 RMK AO2
KEBS 191115Z AUTO 14014KT 10SM BKN012 OVC016 20/19 A2984 RMK AO2
KEBS 191055Z AUTO 15014G20KT 10SM BKN010 BKN014 OVC030 20/19 A2984 RMK AO2
KEBS 191035Z AUTO 15012G20KT 10SM SCT011 SCT024 OVC032 20/19 A2985 RMK AO2
KEBS 191015Z AUTO 14014KT 10SM FEW023 BKN034 OVC047 20/19 A2985 RMK AO2
KEBS 190955Z AUTO 14016KT 10SM BKN036 OVC048 21/20 A2986 RMK AO2 P0010
KEBS 190935Z AUTO 14013G19KT 10SM FEW003 BKN038 OVC055 21/20 A2986 RMK AO2
KEBS 190915Z AUTO 13013KT 6SM BR FEW003 BKN041 OVC070 21/20 A2986 RMK AO2
KEBS 190855Z AUTO 14012G17KT 10SM BKN044 BKN055 OVC065 22/19 A2987 RMK AO2
KEBS 190835Z AUTO 14013G19KT 10SM OVC043 22/19 A2987 RMK AO2
KEBS 190815Z AUTO 14009G14KT 10SM OVC044 22/19 A2988 RMK AO2
KEBS 190755Z AUTO 13008KT 10SM BKN047 OVC055 21/20 A2988 RMK AO2 P0002
KEBS 190735Z AUTO 12006KT 7SM FEW020 OVC048 21/20 A2989 RMK AO2
KEBS 190715Z AUTO 14007KT 10SM BKN050 OVC060 22/19 A2990 RMK AO2
KEBS 190655Z AUTO 14008KT 10SM SCT055 BKN070 OVC075 22/19 A2991 RMK AO2
KEBS 190635Z AUTO 15008KT 10SM OVC065 22/18 A2991 RMK AO2
KEBS 190615Z AUTO 14007KT 10SM SCT065 SCT075 22/18 A2991 RMK AO2
KEBS 190555Z AUTO 14009KT 10SM SCT065 22/18 A2992 RMK AO2
KEBS 190535Z AUTO 14008KT 10SM SCT065 22/18 A2992 RMK AO2
KEBS 190515Z AUTO 13008KT 10SM FEW065 SCT110 22/18 A2992 RMK AO2
KEBS 190455Z AUTO 14007KT 10SM FEW080 BKN110 22/19 A2994 RMK AO2
KEBS 190435Z AUTO 13005KT 10SM BKN120 22/19 A2994 RMK AO2
KEBS 190415Z AUTO 12005KT 10SM SCT070 BKN120 22/19 A2994 RMK AO2
KEBS 190355Z AUTO 12006KT 10SM BKN065 OVC075 22/19 A2994 RMK AO2
KEBS 190335Z AUTO 11006KT 10SM BKN070 OVC075 22/19 A2994 RMK AO2
KEBS 190315Z AUTO 12006KT 10SM BKN065 BKN080 22/18 A2994 RMK AO2
KEBS 190255Z AUTO 12006KT 10SM SCT065 SCT075 22/18 A2994 RMK AO2
KEBS 190235Z AUTO 12005KT 10SM BKN065 22/18 A2994 RMK AO2
KEBS 190215Z AUTO 12006KT 10SM CLR 22/19 A2994 RMK AO2
KEBS 190155Z AUTO 12006KT 10SM CLR 23/19 A2994 RMK AO2
KEBS 190135Z AUTO 11006KT 10SM FEW065 23/19 A2994 RMK AO2
KEBS 190115Z AUTO 12005KT 10SM CLR 24/19 A2995 RMK AO2
KEBS 190055Z AUTO 12005KT 10SM CLR 26/18 A2995 RMK AO2
KEBS 190035Z AUTO 12005KT 10SM CLR 27/18 A2995 RMK AO2
KEBS 190015Z AUTO 13007KT 10SM CLR 27/17 A2995 RMK AO2
KEBS 182355Z AUTO 12008KT 10SM FEW065 27/17 A2995 RMK AO2
KEBS 182335Z AUTO 14006KT 10SM FEW070 27/17 A2996 RMK AO2
KEBS 182315Z AUTO 14009KT 10SM CLR 28/17 A2996 RMK AO2
KEBS 182255Z AUTO 13009KT 10SM FEW060 28/17 A2996 RMK AO2
KEBS 182235Z AUTO 13009KT 10SM SCT060 SCT070 28/17 A2997 RMK AO2
KEBS 182215Z AUTO 13009KT 10SM CLR 29/17 A2997 RMK AO2
KEBS 182155Z AUTO 12010KT 10SM CLR 29/16 A2997 RMK AO2
KEBS 182135Z AUTO 15008KT 10SM CLR 29/17 A2998 RMK AO2
KEBS 182115Z AUTO 14008KT 10SM FEW060 SCT070 29/16 A2999 RMK AO2
KEBS 182055Z AUTO 11010KT 10SM CLR 29/16 A2999 RMK AO2
KEBS 182035Z AUTO 13006G13KT 10SM FEW050 28/17 A3000 RMK AO2
KEBS 182015Z AUTO 15008KT 10SM CLR 28/16 A3001 RMK AO2
KEBS 181955Z AUTO 14009KT 10SM SCT050 SCT075 29/17 A3001 RMK AO2
KEBS 181935Z AUTO 12008KT 10SM FEW048 FEW070 28/17 A3001 RMK AO2
KEBS 181915Z AUTO 13009KT 10SM FEW048 FEW055 SCT075 28/17 A3002 RMK AO2
KEBS 181855Z AUTO 12006KT 10SM SCT048 BKN060 BKN075 28/17 A3003 RMK AO2
KEBS 181835Z AUTO 11006KT 10SM SCT049 BKN065 BKN075 28/17 A3003 RMK AO2
KEBS 181815Z AUTO 5/37500005KT 10SM FEW046 SCT055 BKN075 28/17 A3004 RMK AO2
KEBS 181755Z AUTO 13006KT 10SM SCT047 SCT055 SCT070 28/17 A3005 RMK AO2
KEBS 181735Z AUTO VRB05KT 10SM FEW044 FEW050 FEW070 28/17 A3005 RMK AO2
KEBS 181715Z AUTO VRB05KT 10SM CLR 28/17 A3005 RMK AO2
KEBS 181655Z AUTO 14006KT 10SM CLR 27/18 A3005 RMK AO2
KEBS 181635Z AUTO VRB05G10KT 10SM CLR 27/17 A3005 RMK AO2
KEBS 181615Z AUTO VRB06KT 10SM CLR 27/18 A3006 RMK AO2
KEBS 181555Z AUTO VRB03KT 10SM CLR 26/19 A3007 RMK AO2
KEBS 181535Z AUTO 00000KT 10SM CLR 26/19 A3007 RMK AO2
KEBS 181515Z AUTO 12005KT 10SM CLR 26/19 A3007 RMK AO2
KEBS 181455Z AUTO 13006KT 10SM CLR 25/19 A3007 RMK AO2
KEBS 181435Z AUTO 13004KT 10SM CLR 24/18 A3008 RMK AO2
KEBS 181415Z AUTO 16004KT 10SM CLR 24/19 A3009 RMK AO2
KEBS 181355Z AUTO 17005KT 10SM CLR 23/19 A3009 RMK AO2
KEBS 181335Z AUTO 12006KT 10SM CLR 22/19 A3009 RMK AO2
KEBS 181315Z AUTO 10004KT 10SM CLR 21/19 A3008 RMK AO2
KEBS 181255Z AUTO 10005KT 10SM CLR 20/18 A3008 RMK AO2
KEBS 181235Z AUTO 09005KT 10SM CLR 20/18 A3009 RMK AO2
KEBS 181215Z AUTO 13003KT 10SM CLR 19/18 A3009 RMK AO2
KEBS 181155Z AUTO 00000KT 10SM CLR 18/17 A3009 RMK AO2
KEBS 181135Z AUTO 00000KT 10SM CLR 17/17 A3008 RMK AO2
KEBS 181115Z AUTO 10003KT 10SM CLR 17/16 A3008 RMK AO2
KEBS 181055Z AUTO 09004KT 10SM CLR 16/16 A3008 RMK AO2
KEBS 181035Z AUTO 08003KT 10SM CLR 16/16 A3008 RMK AO2
KEBS 181015Z AUTO 08003KT 10SM CLR 17/16 A3008 RMK AO2
KEBS 180955Z AUTO 09005KT 10SM CLR 17/16 A3008 RMK AO2
KEBS 180935Z AUTO 00000KT 10SM CLR 17/17 A3008 RMK AO2
KEBS 180915Z AUTO 11004KT 10SM CLR 17/17 A3008 RMK AO2